»·PEaware :: SWA8101 KPDX-KSFO

SWA8101 :: KPDX-KSFO

FLIGHT INFORMATION

Flight Status: Arrived
Operator:
Southwest Airlines
More flights by this operator :: More flights under this callsign
Pilot: John M. (9732)
Aircraft: BOEING 737-800
(B738)
More flights by this aircraft type
Origin: KPDX Portland Intl
United States
Destination: KSFO San Francisco Intl
United States
More flights between these airports :: More routes between these airports
Route: MINNE5 FAMUK Q3 FOWND MLBEC BDEGA3
File this flight plan on PilotEdge
Remarks: PBN / A1B1C1D1S1S2 DOF / 190211 REG / N806SB EET / KZOA0036 OPR / SWA PER / C RMK / TCAS SIMBRIEF
Altitude:
(Current/Filed)
36,000ft
Speed:
(Current/Filed)
449kts
Departed: 10-Feb-19 05:29 PM
Arrived: 10-Feb-19 06:55 PM
Distance/Time
Traveled:
479nm/1:26
Distance/Time
To Go:
Arrived

Flight Plot

Page will automatically refresh every two minutes.

Flight plan parsing failed; only flown route is shown


Map Options




Map Legend


Flown Route
Filed Route
Departure Airport
Arrival Airport
Navaid (VOR, NDB)
Fix

Horizontal Profiles

Position Reports

Time Latitude Longitude Heading Altitude Ground
Speed
10-Feb-19 16:11 45.590033 -122.597928 208 37ft 0kts
10-Feb-19 16:12 45.590033 -122.597928 208 37ft 0kts
10-Feb-19 16:13 45.590033 -122.597928 208 37ft 0kts
10-Feb-19 16:14 45.590033 -122.597928 208 37ft 0kts
10-Feb-19 16:15 45.590033 -122.597928 208 37ft 0kts
10-Feb-19 16:16 45.590033 -122.597928 208 38ft 0kts
10-Feb-19 16:17 45.590033 -122.597928 208 38ft 0kts
10-Feb-19 16:18 45.590033 -122.597928 208 38ft 0kts
10-Feb-19 16:18 45.590033 -122.597928 208 38ft 0kts
10-Feb-19 16:19 45.590033 -122.597928 208 38ft 0kts
10-Feb-19 16:21 45.590033 -122.597928 208 38ft 0kts
10-Feb-19 16:22 45.590033 -122.597928 208 38ft 0kts
10-Feb-19 16:23 45.590033 -122.597928 208 38ft 0kts
10-Feb-19 16:23 45.590033 -122.597928 208 38ft 0kts
10-Feb-19 16:24 45.590033 -122.597928 208 38ft 0kts
10-Feb-19 16:25 45.590033 -122.597928 208 38ft 0kts
10-Feb-19 16:26 45.590033 -122.597928 208 38ft 0kts
10-Feb-19 16:27 45.590033 -122.597928 208 38ft 0kts
10-Feb-19 16:28 45.590033 -122.597928 208 38ft 0kts
10-Feb-19 16:29 45.590033 -122.597928 208 38ft 0kts
10-Feb-19 16:30 45.590033 -122.597928 208 38ft 0kts
10-Feb-19 16:31 45.590033 -122.597928 208 38ft 0kts
10-Feb-19 16:32 45.590033 -122.597928 208 38ft 0kts
10-Feb-19 16:33 45.590033 -122.597928 208 38ft 0kts
10-Feb-19 16:34 45.590033 -122.597928 208 38ft 0kts
10-Feb-19 16:35 45.590033 -122.597928 208 38ft 0kts
10-Feb-19 16:36 45.590033 -122.597928 208 38ft 0kts
10-Feb-19 16:37 45.590033 -122.597928 208 38ft 0kts
10-Feb-19 16:38 45.590033 -122.597928 208 38ft 0kts
10-Feb-19 16:39 45.590033 -122.597928 208 38ft 0kts
10-Feb-19 16:40 45.590033 -122.597928 208 38ft 0kts
10-Feb-19 16:41 45.590033 -122.597928 208 38ft 0kts
10-Feb-19 16:42 45.590229 -122.597773 208 38ft 2kts
10-Feb-19 16:43 45.590713 -122.597391 208 38ft 3kts
10-Feb-19 16:44 45.590745 -122.597366 208 38ft 0kts
10-Feb-19 16:45 45.590745 -122.597366 208 38ft 0kts
10-Feb-19 16:46 45.590745 -122.597366 208 38ft 0kts
10-Feb-19 16:47 45.590744 -122.597367 208 38ft 0kts
10-Feb-19 16:48 45.590743 -122.597368 208 38ft 0kts
10-Feb-19 16:49 45.590742 -122.597369 208 38ft 0kts
10-Feb-19 16:50 45.590735 -122.597374 208 38ft 0kts
10-Feb-19 16:51 45.590734 -122.597375 208 38ft 0kts
10-Feb-19 16:52 45.590738 -122.597372 208 34ft 0kts
10-Feb-19 16:53 45.589890 -122.598505 252 34ft 3kts
10-Feb-19 17:02 45.590032 -122.597929 208 37ft 0kts
10-Feb-19 17:03 45.590037 -122.597925 208 38ft 0kts
10-Feb-19 17:04 45.590377 -122.597657 208 38ft 0kts
10-Feb-19 17:05 45.590377 -122.597657 208 38ft 0kts
10-Feb-19 17:06 45.590377 -122.597657 208 38ft 0kts
10-Feb-19 17:07 45.590377 -122.597657 208 38ft 0kts
10-Feb-19 17:08 45.590377 -122.597657 208 38ft 0kts
10-Feb-19 17:09 45.590375 -122.597658 208 38ft 0kts
10-Feb-19 17:10 45.590372 -122.597660 208 38ft 0kts
10-Feb-19 17:11 45.590370 -122.597662 208 38ft 0kts
10-Feb-19 17:12 45.590368 -122.597664 208 38ft 0kts
10-Feb-19 17:13 45.590366 -122.597666 208 38ft 0kts
10-Feb-19 17:14 45.590363 -122.597667 208 38ft 0kts
10-Feb-19 17:15 45.590361 -122.597669 208 38ft 0kts
10-Feb-19 17:16 45.590359 -122.597671 208 38ft 0kts
10-Feb-19 17:17 45.590357 -122.597673 208 38ft 0kts
10-Feb-19 17:18 45.590354 -122.597675 208 38ft 0kts
10-Feb-19 17:19 45.590951 -122.598963 306 38ft 7kts
10-Feb-19 17:20 45.589896 -122.600555 163 38ft 6kts
10-Feb-19 17:21 45.588254 -122.598403 117 38ft 9kts
10-Feb-19 17:22 45.586899 -122.594967 121 38ft 7kts
10-Feb-19 17:23 45.585832 -122.592949 127 38ft 8kts
10-Feb-19 17:24 45.584035 -122.589679 123 38ft 11kts
10-Feb-19 17:25 45.582052 -122.584666 119 38ft 13kts
10-Feb-19 17:26 45.581673 -122.583820 138 38ft 0kts
10-Feb-19 17:27 45.580875 -122.583934 226 38ft 11kts
10-Feb-19 17:28 45.586466 -122.599289 295 39ft 152kts
10-Feb-19 17:29 45.611787 -122.665774 293 2678ft 224kts
10-Feb-19 17:30 45.639536 -122.747137 292 5913ft 237kts
10-Feb-19 17:31 45.664618 -122.827878 258 7233ft 222kts
10-Feb-19 17:32 45.641884 -122.913480 212 9100ft 259kts
10-Feb-19 17:33 45.562919 -122.929347 190 11180ft 325kts
10-Feb-19 17:34 45.467274 -122.940340 191 13598ft 356kts
10-Feb-19 17:35 45.365993 -122.952104 191 14987ft 369kts
10-Feb-19 17:36 45.263223 -122.964013 191 15002ft 369kts
10-Feb-19 17:37 45.161714 -122.981337 197 15005ft 365kts
10-Feb-19 17:38 45.060304 -123.006065 197 16674ft 378kts
10-Feb-19 17:39 44.953433 -123.031234 197 19236ft 398kts
10-Feb-19 17:40 44.841376 -123.057347 196 21582ft 417kts
10-Feb-19 17:41 44.724017 -123.084619 196 23683ft 435kts
10-Feb-19 17:42 44.602352 -123.112576 196 25533ft 452kts
10-Feb-19 17:43 44.476039 -123.135737 186 27559ft 465kts
10-Feb-19 17:44 44.345284 -123.131093 183 29465ft 472kts
10-Feb-19 17:45 44.215155 -123.126072 183 31667ft 462kts
10-Feb-19 17:46 44.087654 -123.121416 183 33686ft 451kts
10-Feb-19 17:47 43.963265 -123.116994 183 35425ft 444kts
10-Feb-19 17:48 43.837391 -123.112548 182 36018ft 465kts
10-Feb-19 17:49 43.704858 -123.107903 182 36032ft 480kts
10-Feb-19 17:50 43.571753 -123.103264 182 36045ft 477kts
10-Feb-19 17:51 43.439312 -123.098669 182 36057ft 476kts
10-Feb-19 17:52 43.307022 -123.094103 182 36064ft 476kts
10-Feb-19 17:53 43.174257 -123.089538 182 36059ft 475kts
10-Feb-19 17:54 43.042134 -123.085012 182 36046ft 476kts
10-Feb-19 17:55 42.909442 -123.080489 182 36026ft 475kts
10-Feb-19 17:56 42.777323 -123.075997 182 36004ft 475kts
10-Feb-19 17:57 42.645184 -123.071525 182 35993ft 475kts
10-Feb-19 17:58 42.512629 -123.067068 182 36007ft 476kts
10-Feb-19 17:59 42.380570 -123.062724 182 36034ft 474kts
10-Feb-19 18:00 42.248317 -123.058409 182 36043ft 474kts
10-Feb-19 18:01 42.116404 -123.054114 182 36047ft 474kts
10-Feb-19 18:03 41.984101 -123.049802 182 36054ft 474kts
10-Feb-19 18:04 41.852340 -123.045541 182 36059ft 474kts
10-Feb-19 18:05 41.720688 -123.041303 183 36044ft 474kts
10-Feb-19 18:06 41.588734 -123.037060 183 36020ft 473kts
10-Feb-19 18:07 41.457116 -123.032856 183 36022ft 473kts
10-Feb-19 18:08 41.325282 -123.028682 183 36077ft 473kts
10-Feb-19 18:09 41.193751 -123.024705 183 36069ft 472kts
10-Feb-19 18:10 41.062578 -123.020747 183 36067ft 472kts
10-Feb-19 18:11 40.930947 -123.016776 183 36062ft 471kts
10-Feb-19 18:12 40.799819 -123.012829 183 36070ft 471kts
10-Feb-19 18:13 40.668468 -123.008898 183 36072ft 471kts
10-Feb-19 18:14 40.537516 -123.004995 183 36079ft 471kts
10-Feb-19 18:15 40.406094 -123.001093 183 36093ft 471kts
10-Feb-19 18:16 40.275141 -122.997223 184 36106ft 471kts
10-Feb-19 18:17 40.144122 -122.993363 184 36115ft 471kts
10-Feb-19 18:18 40.012953 -122.989516 184 36117ft 470kts
10-Feb-19 18:19 39.882374 -122.985680 184 36137ft 470kts
10-Feb-19 18:20 39.751462 -122.981883 185 36143ft 469kts
10-Feb-19 18:21 39.620798 -122.978096 184 35252ft 470kts
10-Feb-19 18:21 39.511885 -122.974946 184 34422ft 471kts
10-Feb-19 18:22 39.380304 -122.971148 184 33421ft 473kts
10-Feb-19 18:24 39.226213 -122.966728 183 32256ft 477kts
10-Feb-19 18:24 39.115025 -122.963550 183 31421ft 479kts
10-Feb-19 18:25 38.981581 -122.960928 183 30423ft 481kts
10-Feb-19 18:26 38.847848 -122.951665 172 29423ft 480kts
10-Feb-19 18:27 38.719042 -122.913025 169 28419ft 470kts
10-Feb-19 18:28 38.592449 -122.875480 169 26966ft 463kts
10-Feb-19 18:29 38.467384 -122.838614 168 25403ft 457kts
10-Feb-19 18:30 38.344695 -122.802630 167 23403ft 448kts
10-Feb-19 18:31 38.224798 -122.767572 167 21552ft 436kts
10-Feb-19 18:32 38.108170 -122.733608 167 19753ft 425kts
10-Feb-19 18:33 37.993815 -122.700497 167 17954ft 419kts
10-Feb-19 18:34 37.884192 -122.657268 148 16146ft 408kts
10-Feb-19 18:35 37.801108 -122.568071 137 14346ft 376kts
10-Feb-19 18:36 37.723482 -122.486778 137 12545ft 351kts
10-Feb-19 18:37 37.650776 -122.409482 138 11065ft 323kts
10-Feb-19 18:38 37.580094 -122.345030 152 10793ft 318kts
10-Feb-19 18:39 37.502778 -122.295274 153 9301ft 302kts
10-Feb-19 18:40 37.437854 -122.240879 118 8274ft 268kts
10-Feb-19 18:41 37.416957 -122.159719 59 7249ft 224kts
10-Feb-19 18:42 37.462728 -122.158204 325 6114ft 171kts
10-Feb-19 18:43 37.502874 -122.175811 298 4838ft 158kts
10-Feb-19 18:44 37.506774 -122.232632 230 4271ft 183kts
10-Feb-19 18:45 37.454261 -122.230372 173 4012ft 198kts
10-Feb-19 18:46 37.424187 -122.174887 88 3984ft 202kts
10-Feb-19 18:47 37.461190 -122.135107 23 3243ft 176kts
10-Feb-19 18:48 37.499865 -122.144653 313 3017ft 160kts
10-Feb-19 18:49 37.531146 -122.183498 313 2483ft 151kts
10-Feb-19 18:50 37.555449 -122.225682 298 1988ft 149kts
10-Feb-19 18:51 37.573540 -122.269893 301 1375ft 136kts
10-Feb-19 18:52 37.591649 -122.311318 299 846ft 133kts
10-Feb-19 18:53 37.608931 -122.351635 297 144ft 128kts
10-Feb-19 18:54 37.619620 -122.377366 298 21ft 11kts
10-Feb-19 18:55 37.619257 -122.379753 201 21ft 1kts
10-Feb-19 18:56 37.618131 -122.379665 154 21ft 8kts
10-Feb-19 18:57 37.616492 -122.379688 204 21ft 14kts
10-Feb-19 18:58 37.613911 -122.381354 204 21ft 15kts
10-Feb-19 18:59 37.611392 -122.384135 281 21ft 6kts
10-Feb-19 19:00 37.612403 -122.384694 5 21ft 3kts
10-Feb-19 19:01 37.612636 -122.384667 4 21ft 0kts
10-Feb-19 19:02 37.612636 -122.384667 4 21ft 0kts
10-Feb-19 19:03 37.612636 -122.384667 4 21ft 0kts
10-Feb-19 19:04 37.612636 -122.384667 4 21ft 0kts
10-Feb-19 19:05 37.612636 -122.384667 4 21ft 0kts
10-Feb-19 19:06 37.612636 -122.384667 4 21ft 0kts
10-Feb-19 19:07 37.612636 -122.384667 4 21ft 0kts
10-Feb-19 19:08 37.612636 -122.384667 4 21ft 0kts
10-Feb-19 19:09 37.612636 -122.384667 4 21ft 0kts

Navigation Log

Ident Type
Flight plan parsing failed, navigation log unavailable